sensor_id;sensor_type;location;lat;lon;timestamp;pressure;altitude;pressure_sealevel;temperature;humidity
72414;BME280;60995;52.154;4.498;2023-02-11T00:01:27;103359.59;;;9.84;71.80
72414;BME280;60995;52.154;4.498;2023-02-11T00:03:46;103353.84;;;9.71;71.99
72414;BME280;60995;52.154;4.498;2023-02-11T00:06:03;103356.56;;;9.50;72.73
72414;BME280;60995;52.154;4.498;2023-02-11T00:08:23;103350.13;;;9.73;71.96
72414;BME280;60995;52.154;4.498;2023-02-11T00:10:39;103346.38;;;9.57;73.02
72414;BME280;60995;52.154;4.498;2023-02-11T00:12:55;103356.03;;;9.63;72.68
72414;BME280;60995;52.154;4.498;2023-02-11T00:15:12;103348.09;;;9.58;72.53
72414;BME280;60995;52.154;4.498;2023-02-11T00:17:28;103349.44;;;9.68;72.46
72414;BME280;60995;52.154;4.498;2023-02-11T00:19:47;103349.44;;;9.68;72.35
72414;BME280;60995;52.154;4.498;2023-02-11T00:22:05;103356.22;;;9.79;72.06
72414;BME280;60995;52.154;4.498;2023-02-11T00:24:24;103352.97;;;9.70;72.19
72414;BME280;60995;52.154;4.498;2023-02-11T00:26:40;103332.97;;;9.73;72.26
72414;BME280;60995;52.154;4.498;2023-02-11T00:28:56;103337.38;;;9.75;72.03
72414;BME280;60995;52.154;4.498;2023-02-11T00:31:14;103332.75;;;9.77;72.09
72414;BME280;60995;52.154;4.498;2023-02-11T00:33:31;103330.78;;;9.62;72.92
72414;BME280;60995;52.154;4.498;2023-02-11T00:35:48;103332.84;;;9.55;72.48
72414;BME280;60995;52.154;4.498;2023-02-11T00:38:04;103334.78;;;9.72;71.76
72414;BME280;60995;52.154;4.498;2023-02-11T00:40:20;103349.38;;;9.70;71.45
72414;BME280;60995;52.154;4.498;2023-02-11T00:42:38;103346.69;;;9.89;70.82
72414;BME280;60995;52.154;4.498;2023-02-11T00:44:55;103342.13;;;9.70;70.70
72414;BME280;60995;52.154;4.498;2023-02-11T00:47:11;103341.38;;;9.67;70.78
72414;BME280;60995;52.154;4.498;2023-02-11T00:49:27;103354.16;;;9.84;70.80
72414;BME280;60995;52.154;4.498;2023-02-11T00:51:43;103353.41;;;9.80;70.67
72414;BME280;60995;52.154;4.498;2023-02-11T00:53:59;103349.31;;;9.71;70.57
72414;BME280;60995;52.154;4.498;2023-02-11T00:56:15;103344.91;;;9.69;71.06
72414;BME280;60995;52.154;4.498;2023-02-11T00:58:31;103348.84;;;9.62;71.58
72414;BME280;60995;52.154;4.498;2023-02-11T01:00:48;103340.13;;;9.55;71.84
72414;BME280;60995;52.154;4.498;2023-02-11T01:03:05;103347.81;;;9.64;71.74
72414;BME280;60995;52.154;4.498;2023-02-11T01:05:21;103340.53;;;9.66;71.62
72414;BME280;60995;52.154;4.498;2023-02-11T01:07:37;103332.31;;;9.47;71.89
72414;BME280;60995;52.154;4.498;2023-02-11T01:09:53;103341.13;;;9.73;71.40
72414;BME280;60995;52.154;4.498;2023-02-11T01:12:09;103333.63;;;9.38;72.61
72414;BME280;60995;52.154;4.498;2023-02-11T01:14:25;103347.31;;;9.35;72.99
72414;BME280;60995;52.154;4.498;2023-02-11T01:16:42;103333.50;;;9.41;72.80
72414;BME280;60995;52.154;4.498;2023-02-11T01:18:58;103335.97;;;9.25;73.39
72414;BME280;60995;52.154;4.498;2023-02-11T01:21:14;103340.94;;;9.16;73.75
72414;BME280;60995;52.154;4.498;2023-02-11T01:23:30;103332.75;;;9.17;74.34
72414;BME280;60995;52.154;4.498;2023-02-11T01:25:47;103337.91;;;9.23;74.04
72414;BME280;60995;52.154;4.498;2023-02-11T01:28:04;103321.91;;;9.17;74.18
72414;BME280;60995;52.154;4.498;2023-02-11T01:30:20;103321.56;;;9.04;74.55
72414;BME280;60995;52.154;4.498;2023-02-11T01:32:36;103315.13;;;9.07;74.64
72414;BME280;60995;52.154;4.498;2023-02-11T01:34:52;103320.63;;;9.05;74.76
72414;BME280;60995;52.154;4.498;2023-02-11T01:37:08;103317.09;;;8.83;75.86
72414;BME280;60995;52.154;4.498;2023-02-11T01:39:25;103318.03;;;8.82;76.53
72414;BME280;60995;52.154;4.498;2023-02-11T01:41:41;103312.31;;;8.67;76.67
72414;BME280;60995;52.154;4.498;2023-02-11T01:43:57;103307.50;;;8.74;76.32
72414;BME280;60995;52.154;4.498;2023-02-11T01:49:01;103306.63;;;8.73;76.40
72414;BME280;60995;52.154;4.498;2023-02-11T01:51:26;103316.34;;;8.57;76.67
72414;BME280;60995;52.154;4.498;2023-02-11T01:53:47;103312.69;;;8.58;77.09
72414;BME280;60995;52.154;4.498;2023-02-11T01:56:24;103314.06;;;8.68;76.58
72414;BME280;60995;52.154;4.498;2023-02-11T01:59:02;103312.16;;;8.70;76.67
72414;BME280;60995;52.154;4.498;2023-02-11T02:01:25;103323.38;;;8.61;77.32
72414;BME280;60995;52.154;4.498;2023-02-11T02:03:44;103323.63;;;8.55;77.17
72414;BME280;60995;52.154;4.498;2023-02-11T02:06:05;103324.00;;;8.46;77.72
72414;BME280;60995;52.154;4.498;2023-02-11T02:08:30;103323.63;;;8.55;77.48
72414;BME280;60995;52.154;4.498;2023-02-11T02:10:53;103304.16;;;8.45;77.99
72414;BME280;60995;52.154;4.498;2023-02-11T02:13:11;103298.47;;;8.53;77.43
72414;BME280;60995;52.154;4.498;2023-02-11T02:15:34;103302.19;;;8.50;78.15
72414;BME280;60995;52.154;4.498;2023-02-11T02:36:04;103323.91;;;8.49;78.81
72414;BME280;60995;52.154;4.498;2023-02-11T02:38:45;103320.56;;;8.40;79.33
72414;BME280;60995;52.154;4.498;2023-02-11T02:41:07;103315.16;;;8.40;79.47
72414;BME280;60995;52.154;4.498;2023-02-11T02:43:26;103322.59;;;8.35;80.17
72414;BME280;60995;52.154;4.498;2023-02-11T02:45:44;103318.63;;;8.44;79.86
72414;BME280;60995;52.154;4.498;2023-02-11T02:47:59;103311.03;;;8.54;79.65
72414;BME280;60995;52.154;4.498;2023-02-11T02:50:16;103315.88;;;8.46;79.71
72414;BME280;60995;52.154;4.498;2023-02-11T03:02:50;103316.00;;;8.42;80.25
72414;BME280;60995;52.154;4.498;2023-02-11T03:05:31;103317.16;;;8.35;80.64
72414;BME280;60995;52.154;4.498;2023-02-11T03:08:27;103319.19;;;8.30;81.43
72414;BME280;60995;52.154;4.498;2023-02-11T03:10:49;103321.72;;;8.35;80.72
72414;BME280;60995;52.154;4.498;2023-02-11T03:13:07;103322.03;;;8.27;81.44
72414;BME280;60995;52.154;4.498;2023-02-11T03:15:24;103310.38;;;8.25;81.33
72414;BME280;60995;52.154;4.498;2023-02-11T03:17:44;103310.13;;;8.31;81.41
72414;BME280;60995;52.154;4.498;2023-02-11T03:20:04;103311.38;;;8.44;81.02
72414;BME280;60995;52.154;4.498;2023-02-11T03:22:25;103320.81;;;8.34;80.60
72414;BME280;60995;52.154;4.498;2023-02-11T03:24:45;103318.06;;;8.36;81.21
72414;BME280;60995;52.154;4.498;2023-02-11T03:27:05;103314.41;;;8.37;81.02
72414;BME280;60995;52.154;4.498;2023-02-11T03:36:42;103303.09;;;8.27;81.46
72414;BME280;60995;52.154;4.498;2023-02-11T03:39:04;103299.53;;;8.25;81.54
72414;BME280;60995;52.154;4.498;2023-02-11T03:41:22;103294.41;;;8.19;81.99
72414;BME280;60995;52.154;4.498;2023-02-11T03:43:40;103287.00;;;8.24;81.85
72414;BME280;60995;52.154;4.498;2023-02-11T03:45:59;103285.31;;;8.20;82.43
72414;BME280;60995;52.154;4.498;2023-02-11T03:48:19;103286.84;;;8.27;81.87
72414;BME280;60995;52.154;4.498;2023-02-11T03:50:40;103295.84;;;8.27;81.84
72414;BME280;60995;52.154;4.498;2023-02-11T03:52:59;103300.63;;;8.21;82.05
72414;BME280;60995;52.154;4.498;2023-02-11T03:55:18;103301.19;;;8.29;82.02
72414;BME280;60995;52.154;4.498;2023-02-11T03:57:35;103294.34;;;8.20;82.24
72414;BME280;60995;52.154;4.498;2023-02-11T03:59:53;103306.97;;;8.20;82.32
72414;BME280;60995;52.154;4.498;2023-02-11T04:02:11;103295.28;;;8.19;82.30
72414;BME280;60995;52.154;4.498;2023-02-11T04:04:27;103298.84;;;8.20;82.73
72414;BME280;60995;52.154;4.498;2023-02-11T04:06:43;103286.16;;;8.22;82.85
72414;BME280;60995;52.154;4.498;2023-02-11T04:08:59;103295.91;;;8.26;82.42
72414;BME280;60995;52.154;4.498;2023-02-11T04:11:15;103280.88;;;8.19;83.07
72414;BME280;60995;52.154;4.498;2023-02-11T04:13:32;103285.47;;;8.17;83.24
72414;BME280;60995;52.154;4.498;2023-02-11T04:15:48;103288.72;;;8.25;82.89
72414;BME280;60995;52.154;4.498;2023-02-11T04:18:04;103286.09;;;8.23;83.62
72414;BME280;60995;52.154;4.498;2023-02-11T04:20:20;103298.81;;;8.21;83.29
72414;BME280;60995;52.154;4.498;2023-02-11T04:22:36;103296.78;;;8.26;83.67
72414;BME280;60995;52.154;4.498;2023-02-11T04:24:52;103292.03;;;8.33;82.77
72414;BME280;60995;52.154;4.498;2023-02-11T04:27:08;103296.78;;;8.26;82.91
72414;BME280;60995;52.154;4.498;2023-02-11T04:29:25;103288.72;;;8.25;83.25
72414;BME280;60995;52.154;4.498;2023-02-11T04:31:41;103289.63;;;8.25;83.24
72414;BME280;60995;52.154;4.498;2023-02-11T04:33:57;103290.31;;;8.31;83.28
72414;BME280;60995;52.154;4.498;2023-02-11T04:36:13;103292.19;;;8.28;83.42
72414;BME280;60995;52.154;4.498;2023-02-11T04:38:29;103294.03;;;8.28;83.71
72414;BME280;60995;52.154;4.498;2023-02-11T04:40:45;103300.56;;;8.44;83.20
72414;BME280;60995;52.154;4.498;2023-02-11T04:43:01;103294.69;;;8.57;83.38
72414;BME280;60995;52.154;4.498;2023-02-11T04:45:17;103294.91;;;8.73;83.09
72414;BME280;60995;52.154;4.498;2023-02-11T04:47:33;103288.75;;;8.69;82.71
72414;BME280;60995;52.154;4.498;2023-02-11T04:49:50;103284.56;;;8.62;82.57
72414;BME280;60995;52.154;4.498;2023-02-11T04:52:07;103281.09;;;8.58;82.83
72414;BME280;60995;52.154;4.498;2023-02-11T04:54:23;103287.66;;;8.53;83.29
72414;BME280;60995;52.154;4.498;2023-02-11T04:56:40;103283.97;;;8.54;83.06
72414;BME280;60995;52.154;4.498;2023-02-11T04:58:56;103277.50;;;8.58;83.27
72414;BME280;60995;52.154;4.498;2023-02-11T05:01:12;103275.19;;;8.49;82.76
72414;BME280;60995;52.154;4.498;2023-02-11T05:03:30;103282.34;;;8.50;82.65
72414;BME280;60995;52.154;4.498;2023-02-11T05:05:46;103279.78;;;8.47;83.20
72414;BME280;60995;52.154;4.498;2023-02-11T05:08:02;103287.31;;;8.38;83.53
72414;BME280;60995;52.154;4.498;2023-02-11T05:10:18;103291.53;;;8.46;83.43
72414;BME280;60995;52.154;4.498;2023-02-11T05:12:34;103290.72;;;8.43;83.36
72414;BME280;60995;52.154;4.498;2023-02-11T05:14:50;103286.13;;;8.46;83.57
72414;BME280;60995;52.154;4.498;2023-02-11T05:17:06;103285.41;;;8.40;83.40
72414;BME280;60995;52.154;4.498;2023-02-11T05:19:22;103299.66;;;8.46;83.69
72414;BME280;60995;52.154;4.498;2023-02-11T05:21:38;103302.38;;;8.46;83.62
72414;BME280;60995;52.154;4.498;2023-02-11T05:23:54;103309.88;;;8.37;83.88
72414;BME280;60995;52.154;4.498;2023-02-11T05:26:11;103311.38;;;8.44;83.84
72414;BME280;60995;52.154;4.498;2023-02-11T05:28:28;103318.59;;;8.46;84.21
72414;BME280;60995;52.154;4.498;2023-02-11T05:30:44;103319.34;;;8.49;83.77
72414;BME280;60995;52.154;4.498;2023-02-11T05:33:00;103322.84;;;8.53;84.00
72414;BME280;60995;52.154;4.498;2023-02-11T05:35:16;103323.75;;;8.52;83.83
72414;BME280;60995;52.154;4.498;2023-02-11T05:37:33;103321.50;;;8.39;84.26
72414;BME280;60995;52.154;4.498;2023-02-11T05:39:49;103318.34;;;8.52;84.05
72414;BME280;60995;52.154;4.498;2023-02-11T05:42:05;103325.00;;;8.65;84.11
72414;BME280;60995;52.154;4.498;2023-02-11T05:44:21;103317.78;;;8.66;83.87
72414;BME280;60995;52.154;4.498;2023-02-11T05:46:37;103325.31;;;8.80;83.60
72414;BME280;60995;52.154;4.498;2023-02-11T05:48:53;103317.09;;;8.83;83.44
72414;BME280;60995;52.154;4.498;2023-02-11T05:51:11;103318.97;;;8.81;82.56
72414;BME280;60995;52.154;4.498;2023-02-11T05:53:27;103319.38;;;8.92;83.37
72414;BME280;60995;52.154;4.498;2023-02-11T05:55:43;103321.81;;;8.98;83.26
72414;BME280;60995;52.154;4.498;2023-02-11T05:57:59;103326.97;;;9.04;83.18
72414;BME280;60995;52.154;4.498;2023-02-11T06:00:15;103317.66;;;9.12;82.59
72414;BME280;60995;52.154;4.498;2023-02-11T06:02:31;103323.13;;;9.10;82.57
72414;BME280;60995;52.154;4.498;2023-02-11T06:04:48;103322.91;;;8.94;82.89
72414;BME280;60995;52.154;4.498;2023-02-11T06:07:04;103318.06;;;9.02;82.89
72414;BME280;60995;52.154;4.498;2023-02-11T06:09:20;103314.25;;;9.06;83.10
72414;BME280;60995;52.154;4.498;2023-02-11T06:11:36;103321.91;;;9.17;82.53
72414;BME280;60995;52.154;4.498;2023-02-11T06:13:52;103320.88;;;9.20;82.26
72414;BME280;60995;52.154;4.498;2023-02-11T06:16:08;103324.00;;;9.10;82.53
72414;BME280;60995;52.154;4.498;2023-02-11T06:18:24;103327.72;;;9.08;82.64
72414;BME280;60995;52.154;4.498;2023-02-11T06:20:41;103317.84;;;9.07;83.06
72414;BME280;60995;52.154;4.498;2023-02-11T06:22:57;103322.91;;;9.15;82.66
72414;BME280;60995;52.154;4.498;2023-02-11T06:25:13;103320.28;;;9.13;81.96
72414;BME280;60995;52.154;4.498;2023-02-11T06:27:29;103320.34;;;9.12;82.71
72414;BME280;60995;52.154;4.498;2023-02-11T06:29:45;103312.22;;;9.12;82.45
72414;BME280;60995;52.154;4.498;2023-02-11T06:32:02;103313.56;;;9.01;82.66
72414;BME280;60995;52.154;4.498;2023-02-11T06:34:18;103309.84;;;9.04;82.75
72414;BME280;60995;52.154;4.498;2023-02-11T06:36:35;103312.56;;;9.24;82.42
72414;BME280;60995;52.154;4.498;2023-02-11T06:38:54;103316.13;;;9.04;82.26
72414;BME280;60995;52.154;4.498;2023-02-11T06:41:10;103318.44;;;8.93;82.57
72414;BME280;60995;52.154;4.498;2023-02-11T06:43:28;103316.41;;;8.98;82.73
72414;BME280;60995;52.154;4.498;2023-02-11T06:45:44;103316.41;;;8.98;82.78
72414;BME280;60995;52.154;4.498;2023-02-11T06:48:08;103326.38;;;9.18;82.54
72414;BME280;60995;52.154;4.498;2023-02-11T06:50:24;103322.81;;;9.18;82.40
72414;BME280;60995;52.154;4.498;2023-02-11T06:52:40;103315.63;;;9.17;82.05
72414;BME280;60995;52.154;4.498;2023-02-11T06:54:56;103322.06;;;9.14;82.65
72414;BME280;60995;52.154;4.498;2023-02-11T06:57:12;103322.06;;;9.14;82.37
72414;BME280;60995;52.154;4.498;2023-02-11T06:59:28;103324.28;;;9.25;82.56
72414;BME280;60995;52.154;4.498;2023-02-11T07:01:44;103328.81;;;9.24;81.88
72414;BME280;60995;52.154;4.498;2023-02-11T07:04:01;103342.91;;;9.33;82.03
72414;BME280;60995;52.154;4.498;2023-02-11T07:06:22;103324.47;;;9.41;81.70
72414;BME280;60995;52.154;4.498;2023-02-11T07:08:42;103328.06;;;9.41;81.67
72414;BME280;60995;52.154;4.498;2023-02-11T07:11:00;103332.00;;;9.34;81.37
72414;BME280;60995;52.154;4.498;2023-02-11T07:13:16;103345.47;;;9.36;81.36
72414;BME280;60995;52.154;4.498;2023-02-11T07:15:32;103345.06;;;9.45;81.38
72414;BME280;60995;52.154;4.498;2023-02-11T07:17:48;103347.50;;;9.51;81.26
72414;BME280;60995;52.154;4.498;2023-02-11T07:20:04;103348.78;;;9.42;81.43
72414;BME280;60995;52.154;4.498;2023-02-11T07:22:21;103351.38;;;9.46;81.18
72414;BME280;60995;52.154;4.498;2023-02-11T07:24:37;103350.28;;;9.50;81.39
72414;BME280;60995;52.154;4.498;2023-02-11T07:26:53;103348.78;;;9.63;80.82
72414;BME280;60995;52.154;4.498;2023-02-11T07:29:09;103355.44;;;9.56;80.71
72414;BME280;60995;52.154;4.498;2023-02-11T07:31:26;103355.16;;;9.62;80.41
72414;BME280;60995;52.154;4.498;2023-02-11T07:33:43;103362.22;;;9.66;80.32
72414;BME280;60995;52.154;4.498;2023-02-11T07:36:03;103365.72;;;9.68;79.75
72414;BME280;60995;52.154;4.498;2023-02-11T07:38:21;103363.81;;;9.70;80.45
72414;BME280;60995;52.154;4.498;2023-02-11T07:40:37;103364.50;;;9.75;80.10
72414;BME280;60995;52.154;4.498;2023-02-11T07:42:53;103369.09;;;9.73;80.07
72414;BME280;60995;52.154;4.498;2023-02-11T07:45:09;103363.56;;;9.76;80.24
72414;BME280;60995;52.154;4.498;2023-02-11T07:47:25;103365.16;;;10.00;79.66
72414;BME280;60995;52.154;4.498;2023-02-11T07:49:41;103365.41;;;9.95;79.27
72414;BME280;60995;52.154;4.498;2023-02-11T07:51:57;103362.22;;;9.85;79.55
72414;BME280;60995;52.154;4.498;2023-02-11T07:54:13;103356.31;;;9.96;79.05
72414;BME280;60995;52.154;4.498;2023-02-11T07:56:29;103364.81;;;10.07;78.17
72414;BME280;60995;52.154;4.498;2023-02-11T07:58:45;103363.13;;;10.05;78.64
72414;BME280;60995;52.154;4.498;2023-02-11T08:01:02;103369.97;;;10.14;78.54
72414;BME280;60995;52.154;4.498;2023-02-11T08:03:20;103365.47;;;10.13;78.80
72414;BME280;60995;52.154;4.498;2023-02-11T08:05:36;103368.19;;;10.13;78.75
72414;BME280;60995;52.154;4.498;2023-02-11T08:07:53;103366.81;;;10.23;78.21
72414;BME280;60995;52.154;4.498;2023-02-11T08:10:09;103369.69;;;10.20;77.71
72414;BME280;60995;52.154;4.498;2023-02-11T08:12:25;103368.84;;;10.18;78.20
72414;BME280;60995;52.154;4.498;2023-02-11T08:14:41;103370.78;;;10.16;78.15
72414;BME280;60995;52.154;4.498;2023-02-11T08:16:57;103374.88;;;10.24;77.87
72414;BME280;60995;52.154;4.498;2023-02-11T08:19:14;103372.16;;;10.24;77.39
72414;BME280;60995;52.154;4.498;2023-02-11T08:21:31;103371.38;;;10.41;77.44
72414;BME280;60995;52.154;4.498;2023-02-11T08:23:47;103371.63;;;10.37;77.02
72414;BME280;60995;52.154;4.498;2023-02-11T08:26:08;103375.66;;;10.47;77.43
72414;BME280;60995;52.154;4.498;2023-02-11T08:28:26;103378.56;;;10.62;76.63
72414;BME280;60995;52.154;4.498;2023-02-11T08:30:42;103389.63;;;10.57;76.50
72414;BME280;60995;52.154;4.498;2023-02-11T08:32:58;103387.94;;;10.73;75.95
72414;BME280;60995;52.154;4.498;2023-02-11T08:35:14;103401.97;;;10.64;76.07
72414;BME280;60995;52.154;4.498;2023-02-11T08:37:30;103396.56;;;10.82;74.97
72414;BME280;60995;52.154;4.498;2023-02-11T08:39:47;103402.16;;;10.79;75.90
72414;BME280;60995;52.154;4.498;2023-02-11T08:42:03;103415.38;;;10.67;75.57
72414;BME280;60995;52.154;4.498;2023-02-11T08:44:20;103410.16;;;10.82;74.98
72414;BME280;60995;52.154;4.498;2023-02-11T08:46:37;103416.22;;;10.50;76.90
72414;BME280;60995;52.154;4.498;2023-02-11T08:48:53;103404.97;;;10.77;75.97
72414;BME280;60995;52.154;4.498;2023-02-11T08:51:11;103405.94;;;10.93;74.86
72414;BME280;60995;52.154;4.498;2023-02-11T08:53:30;103408.91;;;10.89;75.02
72414;BME280;60995;52.154;4.498;2023-02-11T08:55:50;103418.28;;;11.01;74.76
72414;BME280;60995;52.154;4.498;2023-02-11T08:58:07;103416.13;;;11.25;73.92
72414;BME280;60995;52.154;4.498;2023-02-11T09:00:23;103410.31;;;11.50;72.99
72414;BME280;60995;52.154;4.498;2023-02-11T09:02:40;103427.00;;;11.60;72.61
72414;BME280;60995;52.154;4.498;2023-02-11T09:04:56;103412.16;;;11.32;72.73
72414;BME280;60995;52.154;4.498;2023-02-11T09:07:12;103413.50;;;11.58;72.35
72414;BME280;60995;52.154;4.498;2023-02-11T09:09:28;103415.69;;;11.52;72.26
72414;BME280;60995;52.154;4.498;2023-02-11T09:11:44;103420.47;;;11.64;71.84
72414;BME280;60995;52.154;4.498;2023-02-11T09:14:01;103420.47;;;11.47;72.09
72414;BME280;60995;52.154;4.498;2023-02-11T09:16:20;103425.13;;;11.45;72.12
72414;BME280;60995;52.154;4.498;2023-02-11T09:18:37;103408.94;;;11.77;71.32
72414;BME280;60995;52.154;4.498;2023-02-11T09:21:00;103412.78;;;11.72;70.79
72414;BME280;60995;52.154;4.498;2023-02-11T09:23:20;103421.94;;;11.54;71.89
72414;BME280;60995;52.154;4.498;2023-02-11T09:25:40;103413.81;;;11.52;72.19
72414;BME280;60995;52.154;4.498;2023-02-11T09:27:56;103427.09;;;11.76;72.53
72414;BME280;60995;52.154;4.498;2023-02-11T09:30:12;103427.19;;;11.57;72.34
72414;BME280;60995;52.154;4.498;2023-02-11T09:32:28;103434.97;;;11.47;72.14
72414;BME280;60995;52.154;4.498;2023-02-11T09:34:44;103440.19;;;11.33;72.69
72414;BME280;60995;52.154;4.498;2023-02-11T09:37:00;103431.75;;;11.39;72.87
72414;BME280;60995;52.154;4.498;2023-02-11T09:39:16;103435.06;;;11.09;74.02
72414;BME280;60995;52.154;4.498;2023-02-11T09:44:05;103439.81;;;11.23;73.20
72414;BME280;60995;52.154;4.498;2023-02-11T09:46:24;103437.25;;;11.37;72.58
72414;BME280;60995;52.154;4.498;2023-02-11T09:48:46;103448.38;;;11.50;72.82
72414;BME280;60995;52.154;4.498;2023-02-11T09:51:05;103447.59;;;11.66;71.24
72414;BME280;60995;52.154;4.498;2023-02-11T09:53:41;103451.50;;;11.78;71.03
72414;BME280;60995;52.154;4.498;2023-02-11T09:55:59;103451.56;;;11.58;71.59
72414;BME280;60995;52.154;4.498;2023-02-11T09:58:24;103444.59;;;12.05;70.76
72414;BME280;60995;52.154;4.498;2023-02-11T10:03:31;103454.25;;;12.45;68.29
72414;BME280;60995;52.154;4.498;2023-02-11T10:06:42;103469.09;;;11.88;69.20
72414;BME280;60995;52.154;4.498;2023-02-11T10:14:29;103465.66;;;12.02;69.04
72414;BME280;60995;52.154;4.498;2023-02-11T10:22:39;103480.47;;;11.79;69.97
72414;BME280;60995;52.154;4.498;2023-02-11T10:25:35;103476.63;;;11.83;69.95
72414;BME280;60995;52.154;4.498;2023-02-11T10:27:54;103483.75;;;12.03;69.51
72414;BME280;60995;52.154;4.498;2023-02-11T10:32:50;103500.78;;;12.06;69.13
72414;BME280;60995;52.154;4.498;2023-02-11T10:35:18;103504.97;;;11.96;69.48
72414;BME280;60995;52.154;4.498;2023-02-11T10:37:36;103502.28;;;11.95;69.42
72414;BME280;60995;52.154;4.498;2023-02-11T10:39:52;103499.56;;;11.77;70.13
72414;BME280;60995;52.154;4.498;2023-02-11T10:42:09;103496.13;;;11.91;69.73
72414;BME280;60995;52.154;4.498;2023-02-11T10:44:29;103502.25;;;11.96;69.01
72414;BME280;60995;52.154;4.498;2023-02-11T10:46:47;103504.19;;;12.28;67.90
72414;BME280;60995;52.154;4.498;2023-02-11T10:49:05;103500.38;;;11.97;68.65
72414;BME280;60995;52.154;4.498;2023-02-11T10:51:24;103500.84;;;12.22;68.45
72414;BME280;60995;52.154;4.498;2023-02-11T10:53:43;103519.34;;;12.33;68.03
72414;BME280;60995;52.154;4.498;2023-02-11T10:56:00;103519.66;;;12.27;68.37
72414;BME280;60995;52.154;4.498;2023-02-11T10:58:22;103518.56;;;12.14;68.53
72414;BME280;60995;52.154;4.498;2023-02-11T11:00:41;103526.69;;;12.31;68.10
72414;BME280;60995;52.154;4.498;2023-02-11T11:02:58;103526.25;;;12.23;67.79
72414;BME280;60995;52.154;4.498;2023-02-11T11:05:17;103517.34;;;12.19;67.87
72414;BME280;60995;52.154;4.498;2023-02-11T11:07:37;103530.56;;;12.10;68.20
72414;BME280;60995;52.154;4.498;2023-02-11T11:09:55;103524.88;;;12.14;67.97
72414;BME280;60995;52.154;4.498;2023-02-11T11:15:01;103529.78;;;12.07;68.16
72414;BME280;60995;52.154;4.498;2023-02-11T11:17:17;103529.59;;;12.11;68.26
72414;BME280;60995;52.154;4.498;2023-02-11T11:19:34;103523.06;;;11.97;68.92
72414;BME280;60995;52.154;4.498;2023-02-11T11:21:54;103526.31;;;11.86;68.96
72414;BME280;60995;52.154;4.498;2023-02-11T11:26:43;103527.50;;;11.63;69.98
72414;BME280;60995;52.154;4.498;2023-02-11T11:29:12;103530.47;;;11.76;69.90
72414;BME280;60995;52.154;4.498;2023-02-11T11:31:33;103533.53;;;11.33;71.59
72414;BME280;60995;52.154;4.498;2023-02-11T11:34:02;103537.84;;;11.91;70.31
72414;BME280;60995;52.154;4.498;2023-02-11T11:36:38;103535.72;;;11.98;69.65
72414;BME280;60995;52.154;4.498;2023-02-11T11:38:56;103540.47;;;11.93;69.20
72414;BME280;60995;52.154;4.498;2023-02-11T11:41:25;103530.72;;;12.06;69.16
72414;BME280;60995;52.154;4.498;2023-02-11T11:46:35;103534.06;;;12.29;68.56
72414;BME280;60995;52.154;4.498;2023-02-11T11:48:58;103525.69;;;12.66;66.64
72414;BME280;60995;52.154;4.498;2023-02-11T11:51:26;103526.09;;;12.76;66.01
72414;BME280;60995;52.154;4.498;2023-02-11T11:56:18;103516.75;;;12.48;66.94
72414;BME280;60995;52.154;4.498;2023-02-11T11:58:37;103520.09;;;12.69;66.30
72414;BME280;60995;52.154;4.498;2023-02-11T12:04:04;103536.13;;;12.91;65.25
72414;BME280;60995;52.154;4.498;2023-02-11T12:12:03;103537.16;;;12.72;65.86
72414;BME280;60995;52.154;4.498;2023-02-11T12:15:30;103533.16;;;13.12;64.70
72414;BME280;60995;52.154;4.498;2023-02-11T12:23:04;103536.66;;;13.14;64.49
72414;BME280;60995;52.154;4.498;2023-02-11T12:28:45;103531.75;;;13.36;63.52
72414;BME280;60995;52.154;4.498;2023-02-11T12:34:37;103526.78;;;13.59;64.07
72414;BME280;60995;52.154;4.498;2023-02-11T12:37:40;103542.28;;;13.59;62.74
72414;BME280;60995;52.154;4.498;2023-02-11T12:42:37;103539.00;;;14.13;62.48
72414;BME280;60995;52.154;4.498;2023-02-11T12:45:38;103546.81;;;13.74;63.09
72414;BME280;60995;52.154;4.498;2023-02-11T12:51:06;103537.78;;;13.26;62.80
72414;BME280;60995;52.154;4.498;2023-02-11T12:53:57;103532.44;;;13.24;63.78
72414;BME280;60995;52.154;4.498;2023-02-11T12:56:23;103534.81;;;13.46;62.64
72414;BME280;60995;52.154;4.498;2023-02-11T12:58:46;103533.50;;;13.37;62.95
72414;BME280;60995;52.154;4.498;2023-02-11T13:01:09;103531.22;;;13.30;63.15
72414;BME280;60995;52.154;4.498;2023-02-11T13:04:08;103527.50;;;13.15;63.83
72414;BME280;60995;52.154;4.498;2023-02-11T13:06:31;103532.00;;;13.16;63.58
72414;BME280;60995;52.154;4.498;2023-02-11T13:08:52;103521.31;;;12.63;64.45
72414;BME280;60995;52.154;4.498;2023-02-11T13:11:19;103531.63;;;12.90;64.14
72414;BME280;60995;52.154;4.498;2023-02-11T13:16:32;103532.16;;;13.13;63.37
72414;BME280;60995;52.154;4.498;2023-02-11T13:18:56;103538.22;;;13.18;63.24
72414;BME280;60995;52.154;4.498;2023-02-11T13:21:29;103537.63;;;13.29;63.14
72414;BME280;60995;52.154;4.498;2023-02-11T13:29:28;103526.28;;;13.04;63.73
72414;BME280;60995;52.154;4.498;2023-02-11T13:31:53;103521.16;;;12.98;63.90
72414;BME280;60995;52.154;4.498;2023-02-11T13:36:58;103520.34;;;12.64;64.92
72414;BME280;60995;52.154;4.498;2023-02-11T13:39:20;103516.97;;;12.77;63.77
72414;BME280;60995;52.154;4.498;2023-02-11T13:41:38;103517.03;;;13.07;64.55
72414;BME280;60995;52.154;4.498;2023-02-11T13:46:14;103521.88;;;12.86;63.95
72414;BME280;60995;52.154;4.498;2023-02-11T13:48:45;103526.13;;;13.07;63.02
72414;BME280;60995;52.154;4.498;2023-02-11T13:51:10;103517.94;;;13.07;63.80
72414;BME280;60995;52.154;4.498;2023-02-11T13:53:39;103516.59;;;13.15;62.92
72414;BME280;60995;52.154;4.498;2023-02-11T13:56:44;103520.03;;;13.18;62.48
72414;BME280;60995;52.154;4.498;2023-02-11T13:58:59;103507.38;;;13.17;61.79
72414;BME280;60995;52.154;4.498;2023-02-11T14:07:20;103519.25;;;13.16;62.40
72414;BME280;60995;52.154;4.498;2023-02-11T14:10:29;103511.88;;;13.02;62.40